createdAt,value
2019-01-09T00:01:25.682Z,25.00
2019-01-09T00:03:54.226Z,20.43
2019-01-09T00:06:22.779Z,17.90
2019-01-09T00:08:51.372Z,25.43
2019-01-09T00:11:19.922Z,16.70
2019-01-09T00:13:48.459Z,7.80
2019-01-09T00:16:16.965Z,9.80
2019-01-09T00:18:45.518Z,8.20
2019-01-09T00:21:14.078Z,14.10
2019-01-09T00:23:42.651Z,6.07
2019-01-09T00:26:11.223Z,11.90
2019-01-09T00:28:39.771Z,12.10
2019-01-09T00:31:08.341Z,13.47
2019-01-09T00:33:36.950Z,16.00
2019-01-09T00:36:05.509Z,19.20
2019-01-09T00:38:34.129Z,18.43
2019-01-09T00:41:02.683Z,14.00
2019-01-09T00:43:31.239Z,14.03
2019-01-09T00:45:59.810Z,9.27
2019-01-09T00:48:28.370Z,14.40
2019-01-09T00:50:56.917Z,15.60
2019-01-09T00:53:25.497Z,19.17
2019-01-09T00:55:54.121Z,16.73
2019-01-09T00:58:22.667Z,17.77
2019-01-09T01:00:51.259Z,7.30
2019-01-09T01:03:45.062Z,10.97
2019-01-09T01:06:19.630Z,4.03
2019-01-09T01:09:06.075Z,7.07
2019-01-09T01:11:53.845Z,8.80
2019-01-09T01:14:39.898Z,8.70
2019-01-09T01:17:21.877Z,11.40
2019-01-09T01:20:18.798Z,12.00
2019-01-09T01:23:04.790Z,8.93
2019-01-09T01:26:04.331Z,8.80
2019-01-09T01:28:50.665Z,9.10
2019-01-09T01:31:30.979Z,10.97
2019-01-09T01:34:12.639Z,13.47
2019-01-09T01:37:05.919Z,11.17
2019-01-09T01:40:02.338Z,11.00
2019-01-09T01:43:05.065Z,14.53
2019-01-09T01:45:55.533Z,13.77
2019-01-09T01:48:45.083Z,22.87
2019-01-09T01:51:38.887Z,9.57
2019-01-09T01:54:25.150Z,7.97
2019-01-09T01:57:01.029Z,11.93
2019-01-09T01:59:54.590Z,9.93
2019-01-09T02:02:36.942Z,8.40
2019-01-09T02:05:11.065Z,10.87
2019-01-09T02:07:48.785Z,16.27
2019-01-09T02:10:35.162Z,12.20
2019-01-09T02:13:14.986Z,16.57
2019-01-09T02:16:05.615Z,18.43
2019-01-09T02:18:53.391Z,16.90
2019-01-09T02:21:26.018Z,16.07
2019-01-09T02:24:12.251Z,14.30
2019-01-09T02:26:50.570Z,23.30
2019-01-09T02:29:48.102Z,14.47
2019-01-09T02:32:32.054Z,19.50
2019-01-09T02:35:00.645Z,18.67
2019-01-09T02:37:29.195Z,14.83
2019-01-09T02:39:57.741Z,17.10
2019-01-09T02:42:26.492Z,18.90
2019-01-09T02:44:55.079Z,19.23
2019-01-09T02:47:23.662Z,18.47
2019-01-09T02:49:52.240Z,20.97
2019-01-09T02:52:20.785Z,18.97
2019-01-09T02:54:49.331Z,19.23
2019-01-09T02:57:18.011Z,18.07
2019-01-09T02:59:46.501Z,23.03
2019-01-09T03:02:15.059Z,21.57
2019-01-09T03:04:43.626Z,20.40
2019-01-09T03:07:12.169Z,20.37
2019-01-09T03:09:40.730Z,21.73
2019-01-09T03:12:09.293Z,32.53
2019-01-09T03:14:37.833Z,16.07
2019-01-09T03:17:06.378Z,18.43
2019-01-09T03:19:35.078Z,19.20
2019-01-09T03:22:03.623Z,21.03
2019-01-09T03:24:32.219Z,18.27
2019-01-09T03:27:02.340Z,18.77
2019-01-09T03:29:30.890Z,15.60
2019-01-09T03:31:59.439Z,24.43
2019-01-09T03:34:27.997Z,20.03
2019-01-09T03:36:56.545Z,18.93
2019-01-09T03:39:25.099Z,14.87
2019-01-09T03:41:53.670Z,22.20
2019-01-09T03:44:22.219Z,16.57
2019-01-09T03:46:50.771Z,14.80
2019-01-09T03:49:19.357Z,16.80
2019-01-09T03:51:47.894Z,17.67
2019-01-09T03:54:16.438Z,15.47
2019-01-09T03:56:44.998Z,11.30
2019-01-09T03:59:13.539Z,10.47
2019-01-09T04:01:42.091Z,7.80
2019-01-09T04:04:10.727Z,5.70
2019-01-09T04:06:41.930Z,5.93
2019-01-09T04:09:09.483Z,4.90
2019-01-09T04:11:38.039Z,11.83
2019-01-09T04:14:06.573Z,5.60
2019-01-09T04:16:35.129Z,6.47
2019-01-09T04:19:03.682Z,4.47
2019-01-09T04:21:32.246Z,10.70
2019-01-09T04:24:00.795Z,12.63
2019-01-09T04:26:29.390Z,11.53
2019-01-09T04:28:57.969Z,12.27
2019-01-09T04:31:26.518Z,16.57
2019-01-09T04:33:55.058Z,15.73
2019-01-09T04:36:23.622Z,15.03
2019-01-09T04:38:52.195Z,13.53
2019-01-09T04:41:20.789Z,17.40
2019-01-09T04:43:49.385Z,13.53
2019-01-09T04:46:17.942Z,22.27
2019-01-09T04:48:46.625Z,13.33
2019-01-09T04:51:15.221Z,14.70
2019-01-09T04:53:43.786Z,17.23
2019-01-09T04:56:12.336Z,17.30
2019-01-09T04:58:40.985Z,14.03
2019-01-09T05:01:09.546Z,13.10
2019-01-09T05:03:38.082Z,14.00
2019-01-09T05:06:06.657Z,16.33
2019-01-09T05:08:35.203Z,13.10
2019-01-09T05:11:03.743Z,14.23
2019-01-09T05:13:32.317Z,14.43
2019-01-09T05:16:00.863Z,11.77
2019-01-09T05:18:29.414Z,12.17
2019-01-09T05:20:58.114Z,9.67
2019-01-09T05:23:26.718Z,12.37
2019-01-09T05:25:55.297Z,13.57
2019-01-09T05:28:24.478Z,10.73
2019-01-09T05:30:53.077Z,10.90
2019-01-09T05:33:21.611Z,14.33
2019-01-09T05:35:50.261Z,12.93
2019-01-09T05:38:18.802Z,10.73
2019-01-09T05:40:47.276Z,13.30
2019-01-09T05:43:15.840Z,13.83
2019-01-09T05:45:44.391Z,11.83
2019-01-09T05:48:12.927Z,12.63
2019-01-09T05:50:41.592Z,9.03
2019-01-09T05:53:10.146Z,10.30
2019-01-09T05:55:38.691Z,4.87
2019-01-09T05:58:07.277Z,10.43
2019-01-09T06:00:35.823Z,7.87
2019-01-09T06:03:04.370Z,9.10
2019-01-09T06:05:32.945Z,12.90
2019-01-09T06:08:01.490Z,7.90
2019-01-09T06:10:30.054Z,9.53
2019-01-09T06:12:58.622Z,8.23
2019-01-09T06:15:27.161Z,7.03
2019-01-09T06:17:55.708Z,11.43
2019-01-09T06:20:24.278Z,15.10
2019-01-09T06:22:52.818Z,8.70
2019-01-09T06:25:21.400Z,7.47
2019-01-09T06:27:49.993Z,10.60
2019-01-09T06:30:18.530Z,11.40
2019-01-09T06:32:47.082Z,9.07
2019-01-09T06:35:15.634Z,16.53
2019-01-09T06:37:44.174Z,16.07
2019-01-09T06:40:12.714Z,16.57
2019-01-09T06:42:41.289Z,13.27
2019-01-09T06:45:09.838Z,11.20
2019-01-09T06:47:38.381Z,18.10
2019-01-09T06:50:09.344Z,17.13
2019-01-09T06:52:37.901Z,12.33
2019-01-09T06:55:06.477Z,17.63
2019-01-09T06:57:35.074Z,15.53
2019-01-09T07:00:03.777Z,14.60
2019-01-09T07:02:32.322Z,14.67
2019-01-09T07:05:00.916Z,17.93
2019-01-09T07:07:35.962Z,17.23
2019-01-09T07:10:00.941Z,14.97
2019-01-09T07:12:29.751Z,14.03
2019-01-09T07:14:58.284Z,18.47
2019-01-09T07:17:26.840Z,14.83
2019-01-09T07:19:55.403Z,21.90
2019-01-09T07:22:23.943Z,11.37
2019-01-09T07:24:52.494Z,20.30
2019-01-09T07:27:21.066Z,13.70
2019-01-09T07:29:49.621Z,14.80
2019-01-09T07:32:18.191Z,19.43
2019-01-09T07:34:46.768Z,24.77
2019-01-09T07:37:15.323Z,24.97
2019-01-09T07:39:47.042Z,21.03
2019-01-09T07:42:16.302Z,17.43
2019-01-09T07:44:44.850Z,19.90
2019-01-09T07:47:13.391Z,28.17
2019-01-09T07:49:42.102Z,20.63
2019-01-09T07:52:10.642Z,24.60
2019-01-09T07:54:39.192Z,21.30
2019-01-09T07:57:07.802Z,20.37
2019-01-09T07:59:36.353Z,24.27
2019-01-09T08:02:04.902Z,19.07
2019-01-09T08:04:33.485Z,16.80
2019-01-09T08:07:02.036Z,23.13
2019-01-09T08:09:30.583Z,19.87
2019-01-09T08:11:59.158Z,19.80
2019-01-09T08:14:27.727Z,13.60
2019-01-09T08:16:56.290Z,16.43
2019-01-09T08:19:24.850Z,12.30
2019-01-09T08:21:53.393Z,15.50
2019-01-09T08:24:21.938Z,16.03
2019-01-09T08:26:50.508Z,11.37
2019-01-09T08:29:19.071Z,14.83
2019-01-09T08:31:47.659Z,11.97
2019-01-09T08:34:16.249Z,15.77
2019-01-09T08:36:44.813Z,16.47
2019-01-09T08:39:13.355Z,17.20
2019-01-09T08:41:42.095Z,17.37
2019-01-09T08:44:10.636Z,21.50
2019-01-09T08:46:39.173Z,22.10
2019-01-09T08:49:07.744Z,20.77
2019-01-09T08:51:36.391Z,19.00
2019-01-09T08:54:04.943Z,19.27
2019-01-09T08:56:33.517Z,19.67
2019-01-09T08:59:02.074Z,20.07
2019-01-09T09:01:30.623Z,17.13
2019-01-09T09:03:59.227Z,26.93
2019-01-09T09:06:27.822Z,20.50
2019-01-09T09:08:56.369Z,22.03
2019-01-09T09:11:24.946Z,22.97
2019-01-09T09:13:53.513Z,23.23
2019-01-09T09:16:22.081Z,20.27
2019-01-09T09:18:50.658Z,21.83
2019-01-09T09:21:19.228Z,23.60
2019-01-09T09:23:47.774Z,26.43
2019-01-09T09:26:16.326Z,21.33
2019-01-09T09:28:44.890Z,28.97
2019-01-09T09:31:13.437Z,18.93
2019-01-09T09:33:42.030Z,23.30
2019-01-09T09:36:10.566Z,19.23
2019-01-09T09:38:39.127Z,18.97
2019-01-09T09:41:07.719Z,21.00
2019-01-09T09:43:36.278Z,19.13
2019-01-09T09:46:04.843Z,24.73
2019-01-09T09:48:33.409Z,19.53
2019-01-09T09:51:01.957Z,22.27
2019-01-09T09:53:30.419Z,17.57
2019-01-09T09:55:58.984Z,18.60
2019-01-09T09:58:27.533Z,22.07
2019-01-09T10:00:56.090Z,15.03
2019-01-09T10:03:24.670Z,17.17
2019-01-09T10:05:53.234Z,17.83
2019-01-09T10:08:29.241Z,20.60
2019-01-09T10:10:52.134Z,19.43
2019-01-09T10:13:20.678Z,14.13
2019-01-09T10:15:49.231Z,15.83
2019-01-09T10:18:17.791Z,12.93
2019-01-09T10:20:46.338Z,16.33
2019-01-09T10:23:14.898Z,12.40
2019-01-09T10:25:43.475Z,14.50
2019-01-09T10:28:12.051Z,19.40
2019-01-09T10:30:40.598Z,25.47
2019-01-09T10:33:09.161Z,14.13
2019-01-09T10:35:37.709Z,18.50
2019-01-09T10:38:06.283Z,16.00
2019-01-09T10:40:36.326Z,15.20
2019-01-09T10:43:05.097Z,20.03
2019-01-09T10:45:33.664Z,12.93
2019-01-09T10:48:02.305Z,21.47
2019-01-09T10:50:49.922Z,18.33
2019-01-09T10:53:18.575Z,20.50
2019-01-09T10:55:47.121Z,22.87
2019-01-09T10:58:15.671Z,16.57
2019-01-09T11:00:44.257Z,16.03
2019-01-09T11:03:12.818Z,16.63
2019-01-09T11:05:41.398Z,18.87
2019-01-09T11:08:10.014Z,18.57
2019-01-09T11:10:39.462Z,23.80
2019-01-09T11:13:08.020Z,19.87
2019-01-09T11:15:36.595Z,20.83
2019-01-09T11:18:05.138Z,14.07
2019-01-09T11:20:33.709Z,16.57
2019-01-09T11:23:02.391Z,15.57
2019-01-09T11:25:30.935Z,20.03
2019-01-09T11:27:59.518Z,15.50
2019-01-09T11:30:28.087Z,14.03
2019-01-09T11:32:56.636Z,15.97
2019-01-09T11:35:25.405Z,21.37
2019-01-09T11:37:54.021Z,16.00
2019-01-09T11:40:22.597Z,14.77
2019-01-09T11:42:51.170Z,18.87
2019-01-09T11:45:19.746Z,19.70
2019-01-09T11:47:48.392Z,19.07
2019-01-09T11:50:16.970Z,22.03
2019-01-09T11:52:45.560Z,24.33
2019-01-09T11:55:14.372Z,18.27
2019-01-09T11:57:42.919Z,14.53
2019-01-09T12:00:21.761Z,19.03
2019-01-09T12:02:50.308Z,18.23
2019-01-09T12:05:18.871Z,17.33
2019-01-09T12:07:47.475Z,21.77
2019-01-09T12:10:16.635Z,25.10
2019-01-09T12:12:45.577Z,14.63
2019-01-09T12:15:14.598Z,20.60
2019-01-09T12:17:43.214Z,15.63
2019-01-09T12:20:12.318Z,26.50
2019-01-09T12:22:40.903Z,18.60
2019-01-09T12:25:09.761Z,16.50
2019-01-09T12:27:38.311Z,15.10
2019-01-09T12:30:08.273Z,15.10
2019-01-09T12:32:36.832Z,14.83
2019-01-09T12:35:05.568Z,15.23
2019-01-09T12:37:34.139Z,14.33
2019-01-09T12:40:02.713Z,12.93
2019-01-09T12:42:31.258Z,18.23
2019-01-09T12:44:59.822Z,21.70
2019-01-09T12:47:28.368Z,17.20
2019-01-09T12:49:56.954Z,13.60
2019-01-09T12:52:25.527Z,13.33
2019-01-09T12:54:54.117Z,12.17
2019-01-09T12:57:22.702Z,14.63
2019-01-09T12:59:51.256Z,15.57
2019-01-09T13:02:19.803Z,17.07
2019-01-09T13:04:48.392Z,18.03
2019-01-09T13:07:16.961Z,12.33
2019-01-09T13:09:45.594Z,14.77
2019-01-09T13:12:14.228Z,12.20
2019-01-09T13:14:42.775Z,9.80
2019-01-09T13:17:12.093Z,7.80
2019-01-09T13:19:40.852Z,12.73
2019-01-09T13:22:09.399Z,12.73
2019-01-09T13:24:37.961Z,10.50
2019-01-09T13:27:06.528Z,10.10
2019-01-09T13:29:35.082Z,7.07
2019-01-09T13:32:03.638Z,11.03
2019-01-09T13:34:32.326Z,8.93
2019-01-09T13:37:00.882Z,10.20
2019-01-09T13:39:30.883Z,11.50
2019-01-09T13:41:59.802Z,10.33
2019-01-09T13:44:28.353Z,10.33
2019-01-09T13:46:56.903Z,14.37
2019-01-09T13:49:26.304Z,12.17
2019-01-09T13:51:54.844Z,11.33
2019-01-09T13:54:23.422Z,15.27
2019-01-09T13:56:52.050Z,13.93
2019-01-09T13:59:20.615Z,12.47
2019-01-09T14:01:49.185Z,13.23
2019-01-09T14:04:17.755Z,13.97
2019-01-09T14:06:46.295Z,17.70
2019-01-09T14:09:14.926Z,12.60
2019-01-09T14:11:43.514Z,11.03
2019-01-09T14:14:12.077Z,11.47
2019-01-09T14:16:40.603Z,16.63
2019-01-09T14:19:09.189Z,8.67
2019-01-09T14:21:37.743Z,9.43
2019-01-09T14:24:06.284Z,15.43
2019-01-09T14:26:34.846Z,10.00
2019-01-09T14:29:03.398Z,10.13
2019-01-09T14:31:31.951Z,9.20
2019-01-09T14:34:00.505Z,7.37
2019-01-09T14:36:29.054Z,6.77
2019-01-09T14:38:57.626Z,6.93
2019-01-09T14:41:26.195Z,15.83
2019-01-09T14:43:54.742Z,10.70
2019-01-09T14:46:23.287Z,13.90
2019-01-09T14:48:51.866Z,14.77
2019-01-09T14:51:20.411Z,6.83
2019-01-09T14:53:48.961Z,13.20
2019-01-09T14:56:17.535Z,10.03
2019-01-09T14:58:47.596Z,8.53
2019-01-09T15:01:16.137Z,9.00
2019-01-09T15:03:44.827Z,14.10
2019-01-09T15:06:13.442Z,9.43
2019-01-09T15:08:42.048Z,12.40
2019-01-09T15:11:10.668Z,9.27
2019-01-09T15:13:39.217Z,10.30
2019-01-09T15:16:07.792Z,6.93
2019-01-09T15:18:36.430Z,7.53
2019-01-09T15:21:04.993Z,8.60
2019-01-09T15:23:33.966Z,15.67
2019-01-09T15:26:02.674Z,8.00
2019-01-09T15:28:31.322Z,9.03
2019-01-09T15:30:59.931Z,10.20
2019-01-09T15:33:28.584Z,13.97
2019-01-09T15:35:57.162Z,8.57
2019-01-09T15:38:25.773Z,9.70
2019-01-09T15:40:54.416Z,10.73
2019-01-09T15:43:22.999Z,10.10
2019-01-09T15:45:51.573Z,9.83
2019-01-09T15:48:20.137Z,10.07
2019-01-09T15:50:48.696Z,13.43
2019-01-09T15:53:17.280Z,13.77
2019-01-09T15:55:45.871Z,10.90
2019-01-09T15:58:14.655Z,11.37
2019-01-09T16:00:44.623Z,12.93
2019-01-09T16:03:13.294Z,15.63
2019-01-09T16:05:41.920Z,13.60
2019-01-09T16:08:10.766Z,13.47
2019-01-09T16:10:39.465Z,11.00
2019-01-09T16:13:08.018Z,7.00
2019-01-09T16:15:36.642Z,7.20
2019-01-09T16:18:05.485Z,13.63
2019-01-09T16:20:34.027Z,9.40
2019-01-09T16:23:02.632Z,10.97
2019-01-09T16:25:31.207Z,5.67
2019-01-09T16:27:59.819Z,8.37
2019-01-09T16:30:34.180Z,9.30
2019-01-09T16:33:03.151Z,8.23
2019-01-09T16:35:32.663Z,11.90
2019-01-09T16:38:01.324Z,10.37
2019-01-09T16:40:29.946Z,9.50
2019-01-09T16:42:58.502Z,10.63
2019-01-09T16:45:27.082Z,8.77
2019-01-09T16:47:55.679Z,11.53
2019-01-09T16:50:24.227Z,7.27
2019-01-09T16:52:52.801Z,7.67
2019-01-09T16:55:21.366Z,10.83
2019-01-09T16:57:49.913Z,9.63
2019-01-09T17:00:22.637Z,7.60
2019-01-09T17:02:51.201Z,9.73
2019-01-09T17:05:19.846Z,5.20
2019-01-09T17:07:48.477Z,11.13
2019-01-09T17:10:17.106Z,15.80
2019-01-09T17:12:45.783Z,10.87
2019-01-09T17:15:14.663Z,10.90
2019-01-09T17:17:43.222Z,8.97
2019-01-09T17:20:13.222Z,9.43
2019-01-09T17:22:41.844Z,9.30
2019-01-09T17:25:10.486Z,12.67
2019-01-09T17:27:39.071Z,9.13
2019-01-09T17:30:09.916Z,11.13
2019-01-09T17:32:38.522Z,9.87
2019-01-09T17:35:07.219Z,12.13
2019-01-09T17:37:35.866Z,7.10
2019-01-09T17:40:05.451Z,11.97
2019-01-09T17:42:34.029Z,11.63
2019-01-09T17:45:02.870Z,8.80
2019-01-09T17:47:31.851Z,13.07
2019-01-09T17:50:00.399Z,9.70
2019-01-09T17:52:28.989Z,10.43
2019-01-09T17:54:57.614Z,9.60
2019-01-09T17:57:26.475Z,11.57
2019-01-09T17:59:55.066Z,10.47
2019-01-09T18:02:23.724Z,15.60
2019-01-09T18:04:52.346Z,14.07
2019-01-09T18:07:21.001Z,12.00
2019-01-09T18:09:49.580Z,12.83
2019-01-09T18:12:18.135Z,10.00
2019-01-09T18:14:46.871Z,12.43
2019-01-09T18:17:15.437Z,7.90
2019-01-09T18:19:43.999Z,14.13
2019-01-09T18:22:12.643Z,17.40
2019-01-09T18:24:41.287Z,13.40
2019-01-09T18:27:09.930Z,10.63
2019-01-09T18:29:38.634Z,13.07
2019-01-09T18:32:15.431Z,15.13
2019-01-09T18:34:47.238Z,12.50
2019-01-09T18:37:20.832Z,13.83
2019-01-09T18:40:08.692Z,10.10
2019-01-09T18:42:48.314Z,11.87
2019-01-09T18:45:29.653Z,9.90
2019-01-09T18:48:08.726Z,9.00
2019-01-09T18:51:02.152Z,10.20
2019-01-09T18:53:35.789Z,12.73
2019-01-09T18:56:04.645Z,8.17
2019-01-09T18:58:33.223Z,14.27
2019-01-09T19:01:01.851Z,15.90
2019-01-09T19:03:30.546Z,12.97
2019-01-09T19:05:59.279Z,11.57
2019-01-09T19:08:27.929Z,14.63
2019-01-09T19:10:56.571Z,12.90
2019-01-09T19:13:25.135Z,11.37
2019-01-09T19:15:53.686Z,12.47
2019-01-09T19:18:22.530Z,12.20
2019-01-09T19:20:51.113Z,10.30
2019-01-09T19:23:19.663Z,8.67
2019-01-09T19:25:48.228Z,12.80
2019-01-09T19:28:16.791Z,14.27
2019-01-09T19:30:45.787Z,8.23
2019-01-09T19:33:14.327Z,9.20
2019-01-09T19:35:44.691Z,17.60
2019-01-09T19:38:13.345Z,9.77
2019-01-09T19:40:41.894Z,11.67
2019-01-09T19:43:10.459Z,8.03
2019-01-09T19:45:39.094Z,13.27
2019-01-09T19:48:08.582Z,7.37
2019-01-09T19:50:42.517Z,11.80
2019-01-09T19:53:07.575Z,11.00
2019-01-09T19:55:36.141Z,12.80
2019-01-09T19:58:04.735Z,9.70
2019-01-09T20:00:33.335Z,12.73
2019-01-09T20:03:01.916Z,10.03
2019-01-09T20:05:30.520Z,12.13
2019-01-09T20:07:59.141Z,10.43
2019-01-09T20:10:27.873Z,8.80
2019-01-09T20:12:56.546Z,7.93
2019-01-09T20:15:25.189Z,9.17
2019-01-09T20:17:53.826Z,7.93
2019-01-09T20:20:22.426Z,13.40
2019-01-09T20:22:51.406Z,8.93
2019-01-09T20:25:20.000Z,10.40
2019-01-09T20:27:48.556Z,8.63
2019-01-09T20:30:19.557Z,8.93
2019-01-09T20:32:48.215Z,10.57
2019-01-09T20:35:16.779Z,4.30
2019-01-09T20:37:45.377Z,10.97
2019-01-09T20:40:14.074Z,7.47
2019-01-09T20:42:42.635Z,13.07
2019-01-09T20:45:11.557Z,6.33
2019-01-09T20:47:40.117Z,6.57
2019-01-09T20:50:10.461Z,11.33
2019-01-09T20:52:39.049Z,13.77
2019-01-09T20:55:07.806Z,10.67
2019-01-09T20:57:36.531Z,9.33
2019-01-09T21:00:06.626Z,16.07
2019-01-09T21:02:35.337Z,15.53
2019-01-09T21:05:04.680Z,9.37
2019-01-09T21:07:33.382Z,14.57
2019-01-09T21:10:02.046Z,8.03
2019-01-09T21:12:30.613Z,9.10
2019-01-09T21:14:59.266Z,8.67
2019-01-09T21:17:27.992Z,10.20
2019-01-09T21:19:56.714Z,13.53
2019-01-09T21:22:25.263Z,8.43
2019-01-09T21:24:53.842Z,8.70
2019-01-09T21:27:22.406Z,13.27
2019-01-09T21:29:51.019Z,10.30
2019-01-09T21:32:21.047Z,8.90
2019-01-09T21:34:49.579Z,8.37
2019-01-09T21:37:18.122Z,9.27
2019-01-09T21:39:46.736Z,8.53
2019-01-09T21:42:15.290Z,10.07
2019-01-09T21:44:43.834Z,9.40
2019-01-09T21:47:12.407Z,9.87
2019-01-09T21:49:40.967Z,9.13
2019-01-09T21:52:09.522Z,7.87
2019-01-09T21:54:38.103Z,13.27
2019-01-09T21:57:06.690Z,16.50
2019-01-09T21:59:35.252Z,14.10
2019-01-09T22:02:03.818Z,7.57
2019-01-09T22:04:32.431Z,9.93
2019-01-09T22:07:00.991Z,12.83
2019-01-09T22:09:29.578Z,10.77
2019-01-09T22:12:02.535Z,8.57
2019-01-09T22:14:28.448Z,14.43
2019-01-09T22:16:57.029Z,9.60
2019-01-09T22:19:25.593Z,9.03
2019-01-09T22:21:54.143Z,9.43
2019-01-09T22:24:22.758Z,12.60
2019-01-09T22:26:51.323Z,12.07
2019-01-09T22:29:19.871Z,9.93
2019-01-09T22:31:48.444Z,8.80
2019-01-09T22:34:16.999Z,9.17
2019-01-09T22:36:45.572Z,12.33
2019-01-09T22:39:14.159Z,14.90
2019-01-09T22:41:42.706Z,10.20
2019-01-09T22:44:11.288Z,9.77
2019-01-09T22:46:39.861Z,9.80
2019-01-09T22:49:10.315Z,11.57
2019-01-09T22:51:38.676Z,11.60
2019-01-09T22:54:07.272Z,7.70
2019-01-09T22:56:35.890Z,13.03
2019-01-09T22:59:04.443Z,15.17
2019-01-09T23:01:33.114Z,10.47
2019-01-09T23:04:01.687Z,8.27
2019-01-09T23:06:30.258Z,8.83
2019-01-09T23:08:58.841Z,14.43
2019-01-09T23:11:27.400Z,12.37
2019-01-09T23:13:55.956Z,13.57
2019-01-09T23:16:24.583Z,10.80
2019-01-09T23:18:53.170Z,12.53
2019-01-09T23:21:21.775Z,9.17
2019-01-09T23:23:50.330Z,9.73
2019-01-09T23:26:19.001Z,10.23
2019-01-09T23:28:47.642Z,13.07
2019-01-09T23:31:16.194Z,10.33
2019-01-09T23:33:44.777Z,11.37
2019-01-09T23:36:13.346Z,10.53
2019-01-09T23:38:41.919Z,15.07
2019-01-09T23:41:10.462Z,18.13
2019-01-09T23:43:39.036Z,13.43
2019-01-09T23:46:07.633Z,21.77
2019-01-09T23:48:36.246Z,13.67
2019-01-09T23:51:04.818Z,14.70
2019-01-09T23:53:33.370Z,13.57
2019-01-09T23:56:01.914Z,18.40
2019-01-09T23:58:30.489Z,15.20
